• Join FlightAware (Why Join?)
  • Login
  • US Flag 
05:44AM EDT


 

Airport Tracker/Info


-or-


 

Live Flight TrackerFlight Track Log ✈ N865JM ✈ 19-Oct-2013 ✈ KORL - KHPN

Flight Track Log - Related Links

Times and Time Zones

All times are in EDT time to prevent confusion due to time zone crossing. See the N865JM flight status page for this flight to view local times or setup timezone preferences in your user account.

Time Position Orientation Groundspeed Altitude Reporting Facility
EDT Latitude Longitude Course Direction KTS MPH feet Rate Location/Type
11:51AM 28.5333 -81.3500 246° West 196 226 600  Level Orlando TRACON
11:52AM 28.5000 -81.4333 246° West 229 264 4,100 3,060 Climbing Orlando TRACON
11:53AM 28.5333 -81.5000 300° West 264 304 8,000 3,480 Climbing Orlando TRACON
11:54AM 28.6000 -81.5000 360° North 325 374 10,500 1,980 Climbing Orlando TRACON
11:56AM 28.7994 -81.4617 10° North 354 407 13,600 1,560 Climbing Jacksonville Center
11:57AM 28.9139 -81.4314 13° North 398 458 15,200 1,560 Climbing Jacksonville Center
11:58AM 29.0344 -81.4036 11° North 420 483 16,800 1,980 Climbing Jacksonville Center
11:59AM 29.1514 -81.3947 North 430 495 19,200 1,740 Climbing Jacksonville Center
12:00PM 29.2725 -81.4047 356° North 415 478 20,300 1,080 Climbing Jacksonville Center
12:01PM 29.3958 -81.4194 354° North 429 494 21,400 1,140 Climbing Jacksonville Center
12:02PM 29.5192 -81.4319 355° North 440 506 22,600 1,080 Climbing Jacksonville Center
12:03PM 29.6467 -81.4444 355° North 450 518 23,600 1,020 Climbing Jacksonville Center
12:04PM 29.7761 -81.4592 354° North 455 524 24,700 1,140 Climbing Jacksonville Center
12:05PM 29.9036 -81.4694 356° North 455 524 25,900 1,080 Climbing Jacksonville Center
12:06PM 30.0292 -81.4819 355° North 455 524 26,900 900 Climbing Jacksonville Center
12:07PM 30.1481 -81.4922 356° North 466 536 27,800 660 Climbing Jacksonville Center
12:08PM 30.2794 -81.4733 North 461 531 28,300 480 Climbing Jacksonville Center
12:09PM 30.4150 -81.4544 North 471 542 28,800 600 Climbing Jacksonville Center
12:10PM 30.5506 -81.4381 North 482 555 29,600 900 Climbing Jacksonville Center
12:11PM 30.6819 -81.4192 North 482 555 30,600 960 Climbing Jacksonville Center
12:12PM 30.8153 -81.4000 North 482 555 31,600 1,440 Climbing Jacksonville Center
12:13PM 30.9358 -81.3472 21° North 477 549 33,500 1,860 Climbing Jacksonville Center
12:14PM 31.0433 -81.2681 32° Northeast 458 527 35,300 1,620 Climbing Jacksonville Center
12:15PM 31.1447 -81.1911 33° Northeast 444 511 36,800 1,260 Climbing Jacksonville Center
12:16PM 31.2481 -81.1139 33° Northeast 438 504 37,900 1,080 Climbing Jacksonville Center
12:17PM 31.3553 -81.0292 34° Northeast 426 490 39,000 540 Climbing Jacksonville Center
12:18PM 31.4525 -80.9589 32° Northeast 438 504 39,000  Level Jacksonville Center
12:19PM 31.5575 -80.8764 34° Northeast 450 518 39,000  Level Jacksonville Center
12:20PM 31.6814 -80.7833 33° Northeast 475 547 39,000  Level Jacksonville Center
12:21PM 31.7844 -80.7050 33° Northeast 480 552 39,000  Level Jacksonville Center
12:22PM 31.9081 -80.6092 33° Northeast 480 552 39,000  Level Jacksonville Center
12:23PM 32.0089 -80.5356 32° Northeast 475 547 39,000  Level Jacksonville Center
12:24PM 32.1325 -80.4417 33° Northeast 475 547 39,000  Level Jacksonville Center
12:25PM 32.2433 -80.3528 34° Northeast 475 547 39,000  Level Jacksonville Center
12:26PM 32.3544 -80.2686 33° Northeast 475 547 39,000  Level Jacksonville Center
12:27PM 32.4631 -80.1792 35° Northeast 475 547 39,000  Level Jacksonville Center
12:28PM 32.5781 -80.0919 33° Northeast 481 554 39,000  Level Jacksonville Center
12:29PM 32.6889 -80.0047 34° Northeast 481 554 39,000  Level Jacksonville Center
12:30PM 32.7894 -79.9247 34° Northeast 481 554 39,000  Level Jacksonville Center
12:31PM 32.9000 -79.8347 34° Northeast 481 554 39,000  Level Jacksonville Center
12:32PM 33.0147 -79.7464 33° Northeast 481 554 39,000  Level Jacksonville Center
12:33PM 33.1253 -79.6608 33° Northeast 481 554 39,000  Level Jacksonville Center
12:34PM 33.2375 -79.5697 34° Northeast 481 554 39,000  Level Jacksonville Center
12:35PM 33.3500 -79.4811 33° Northeast 476 548 39,000  Level Jacksonville Center
12:36PM 33.4603 -79.3922 34° Northeast 476 548 39,000  Level Jacksonville Center
12:37PM 33.5725 -79.3031 33° Northeast 476 548 39,000  Level Jacksonville Center
12:38PM 33.6825 -79.2136 34° Northeast 476 548 39,000  Level Jacksonville Center
12:39PM 33.8031 -79.1211 33° Northeast 467 537 39,000  Level Jacksonville Center
12:40PM 33.9150 -79.0314 34° Northeast 472 543 39,000  Level Jacksonville Center
12:42PM 34.1131 -78.8475 38° Northeast 466 536 39,000  Level Washington Center
12:43PM 34.2203 -78.7389 40° Northeast 480 552 39,000  Level Washington Center
12:44PM 34.3250 -78.6372 39° Northeast 485 558 39,000  Level Washington Center
12:45PM 34.4300 -78.5303 40° Northeast 485 558 39,000  Level Washington Center
12:46PM 34.5389 -78.4233 39° Northeast 490 564 39,000  Level Washington Center
12:47PM 34.6436 -78.3183 40° Northeast 492 566 39,000  Level Washington Center
12:48PM 34.7483 -78.2081 41° Northeast 492 566 39,000  Level Washington Center
12:49PM 34.8508 -78.0925 43° Northeast 492 566 39,000  Level Washington Center
12:50PM 34.9575 -77.9844 40° Northeast 492 566 39,000  Level Washington Center
12:51PM 35.0639 -77.8758 40° Northeast 492 566 39,000  Level Washington Center
12:52PM 35.1703 -77.7669 40° Northeast 492 566 39,000  Level Washington Center
12:53PM 35.2767 -77.6556 41° Northeast 492 566 39,000  Level Washington Center
12:54PM 35.3847 -77.5486 39° Northeast 492 566 39,000  Level Washington Center
12:55PM 35.4992 -77.4494 35° Northeast 492 566 39,000  Level Washington Center
12:57PM 35.6798 -77.2871 36° Northeast  Level FlightAware Approximate
01:04PM 36.3572 -76.6751 36° Northeast  Level FlightAware Approximate
01:05PM 36.4544 -76.5880 36° Northeast  Level FlightAware Approximate
01:06PM 36.5515 -76.5006 36° Northeast  Level FlightAware Approximate
01:07PM 36.6485 -76.4130 36° Northeast  Level FlightAware Approximate
01:08PM 36.7455 -76.3252 36° Northeast  Level FlightAware Approximate
01:09PM 36.8425 -76.2372 36° Northeast  Level FlightAware Approximate
01:10PM 36.9464 -76.1640 24° Northeast  Level FlightAware Approximate
01:11PM 37.0554 -76.1017 25° Northeast  Level FlightAware Approximate
01:12PM 37.1652 -76.0415 22° Northeast  Level FlightAware Approximate
01:13PM 37.2760 -75.9841 22° Northeast  Level FlightAware Approximate
01:14PM 37.3868 -75.9265 22° Northeast  Level FlightAware Approximate
01:15PM 37.4975 -75.8687 22° Northeast  Level FlightAware Approximate
01:15PM 37.7769 -75.6364 31° Northeast 481 554 39,000  Level Washington Center
01:16PM 37.6024 -75.7965 32° Northeast  Level FlightAware Approximate
01:16PM 37.9000 -75.5628 25° Northeast 481 554 39,000  Level Washington Center
01:17PM 37.7045 -75.7171 32° Northeast  Level FlightAware Approximate
01:17PM 38.0231 -75.4889 25° Northeast 481 554 39,000  Level Washington Center
01:18PM 37.8065 -75.6376 32° Northeast  Level FlightAware Approximate
01:18PM 38.1481 -75.4122 26° Northeast 481 554 39,000  Level Washington Center
01:19PM 37.9089 -75.5587 31° Northeast  Level FlightAware Approximate
01:19PM 38.2731 -75.3353 26° Northeast 486 559 39,000  Level Washington Center
01:20PM 38.0114 -75.4798 31° Northeast  Level FlightAware Approximate
01:20PM 38.4061 -75.2500 27° Northeast 486 559 39,000  Level Washington Center
01:21PM 38.5311 -75.1669 27° Northeast 486 559 39,000  Level Washington Center
01:22PM 38.6578 -75.0867 26° Northeast 486 559 39,000  Level Washington Center
01:23PM 38.7825 -75.0031 28° Northeast 492 566 39,000 -120 Level Washington Center
01:24PM 38.9072 -74.9247 26° Northeast 492 566 38,800 -480 Descending Washington Center
01:25PM 39.0358 -74.8406 27° Northeast 498 573 38,100 -1,800 Descending Washington Center
01:26PM 39.1603 -74.7322 34° Northeast 514 592 35,300 -3,060 Descending Washington Center
01:27PM 39.2803 -74.6103 38° Northeast 537 618 32,100 -3,120 Descending Washington Center
01:29PM 39.5597 -74.3253 38° Northeast 532 612 24,900 -2,460 Descending New York Center
01:30PM 39.6697 -74.2067 40° Northeast 526 605 23,800 -960 Descending New York Center
01:31PM 39.7792 -74.0906 39° Northeast 520 598 23,000 -1,020 Descending New York Center
01:33PM 40.0119 -73.8378 40° Northeast 474 545 20,500 -1,080 Descending Boston Center
01:34PM 40.1133 -73.7261 40° Northeast 465 535 19,500 -1,020 Descending Boston Center
01:35PM 40.2058 -73.6356 37° Northeast 465 535 18,600 -960 Descending Boston Center
01:36PM 40.3092 -73.5258 39° Northeast 465 535 17,600 -900 Descending Boston Center
01:37PM 40.4161 -73.4403 31° Northeast 465 535 16,900 -360 Descending Boston Center
01:38PM 40.5333 -73.3983 15° North 439 505 16,900 -240 Level Boston Center
01:39PM 40.6167 -73.3667 16° North 435 501 16,600 -960 Descending New York TRACON
01:40PM 40.7333 -73.3333 12° North 445 512 15,400 -1,200 Descending New York TRACON
01:41PM 40.8167 -73.2333 42° Northeast 398 458 14,200 -1,440 Descending New York TRACON
01:42PM 40.8833 -73.1333 49° Northeast 407 468 12,600 -1,680 Descending New York TRACON
01:43PM 40.9333 -73.0333 56° Northeast 344 396 11,100 -1,800 Descending New York TRACON
01:44PM 41.0167 -73.0167 North 298 343 9,200 -1,980 Descending New York TRACON
01:45PM 41.0833 -73.0667 331° Northwest 284 327 7,200 -2,040 Descending New York TRACON
01:46PM 41.1167 -73.1667 294° West 267 307 5,200 -1,140 Descending New York TRACON
01:47PM 41.1333 -73.2500 285° West 264 304 5,000 -480 Descending New York TRACON
01:48PM 41.1500 -73.3500 283° West 260 299 4,300 -540 Descending New York TRACON
01:49PM 41.1667 -73.4333 285° West 265 305 4,000 -180 Descending New York TRACON
01:50PM 41.2000 -73.5167 298° West 229 264 4,000  Level New York TRACON
01:51PM 41.2333 -73.5833 304° West 195 224 4,000  Level New York TRACON
01:52PM 41.2667 -73.6333 312° West 186 214 4,000 -120 Level New York TRACON
01:53PM 41.2833 -73.7000 288° West 192 221 3,800 -360 Descending New York TRACON
01:54PM 41.3000 -73.7667 288° West 184 212 3,300 -420 Descending New York TRACON
01:55PM 41.2833 -73.8333 252° West 182 209 3,000 -180 Descending New York TRACON
01:56PM 41.2333 -73.8167 166° South 166 191 3,000 -300 Level New York TRACON
01:57PM 41.1833 -73.8000 166° South 175 201 2,400 -480 Descending New York TRACON
01:58PM 41.1500 -73.7667 143° Southeast 158 182 2,100 -480 Descending New York TRACON
01:59PM 41.1167 -73.7500 159° South 122 140 1,500 -600 Descending New York TRACON
02:00PM 41.0833 -73.7167 143° Southeast 119 137 900 -600 Descending New York TRACON